Desterrado — CUCD7 — position and weather

sailwx.info

Track history (hours):
 
Tides and Currents Weather Stations Pressure Air Temp Water Temp Dewpoint Dewpoint Depression Visibility Wind Speed Wind Dir Waves Ship Positions

Desterrado

Last reported at 2017-Nov-19 20:14 UTC. Time now 2017-Nov-21 04:46 UTC.
Position N 38°26' W 009°07'.

Length 18 m.

Type: Fishing. MMSI: 263341000.

Date/timePositionNaut miles runAvg speedWind from/ knotsBaromVisibWave heightAir tempDewpointWater temp
2017-Nov-19 20:14N 38°26' W 009°07'0 0.0
2017-Nov-19 13:49N 38°26' W 009°07'0 0.0
2017-Nov-19 13:30N 38°26' W 009°07'0 0.0
2017-Nov-19 13:00N 38°26' W 009°07'0 0.0
2017-Nov-19 12:30N 38°26' W 009°07'0 0.0
2017-Nov-19 12:00N 38°26' W 009°07'0 0.0
2017-Nov-19 11:30N 38°26' W 009°07'0 0.0
2017-Nov-19 11:00N 38°26' W 009°07'0 0.0
2017-Nov-18 06:43N 38°26' W 009°07'0 0.0
2017-Nov-18 06:30N 38°26' W 009°07'0 0.2
2017-Nov-18 06:00N 38°26' W 009°07'2 4.7
2017-Nov-18 05:30N 38°25' W 009°09'4 8.2
2017-Nov-18 05:00N 38°25' W 009°15'4 8.6
2017-Nov-18 04:30N 38°25' W 009°20'4 8.9
2017-Nov-18 04:00N 38°25' W 009°26'4 9.0
2017-Nov-18 03:30N 38°25' W 009°31'6 5.0
2017-Nov-18 02:17N 38°26' W 009°39'2 5.4
2017-Nov-18 02:00N 38°27' W 009°37'2 3.4
2017-Nov-18 01:30N 38°26' W 009°39'0 0.4
2017-Nov-18 01:00N 38°26' W 009°39'0 0.3
2017-Nov-18 00:30N 38°26' W 009°39'0 0.8
2017-Nov-17 23:59N 38°26' W 009°40'0 0.8
2017-Nov-17 23:30N 38°26' W 009°40'0 0.5
2017-Nov-17 23:00N 38°26' W 009°41'0 0.8
2017-Nov-17 22:30N 38°26' W 009°41'0 0.5
2017-Nov-17 22:00N 38°25' W 009°41'0 0.4
2017-Nov-17 21:30N 38°25' W 009°41'0 0.2
2017-Nov-17 21:00N 38°25' W 009°41'0 0.5
2017-Nov-17 20:28N 38°25' W 009°41'7 5.9
2017-Nov-17 19:19N 38°32' W 009°45'2 6.1
2017-Nov-17 19:00N 38°33' W 009°44'1 2.2
2017-Nov-17 18:30N 38°32' W 009°44'0 0.2
2017-Nov-17 18:00N 38°32' W 009°44'0 0.6
2017-Nov-17 17:30N 38°32' W 009°44'0 0.9
2017-Nov-17 17:00N 38°32' W 009°45'0 0.7
2017-Nov-17 16:31N 38°31' W 009°45'0 0.9
2017-Nov-17 16:00N 38°31' W 009°45'1 1.1
2017-Nov-17 15:30N 38°31' W 009°46'1 1.2
2017-Nov-17 15:00N 38°30' W 009°46'0 1.0
2017-Nov-17 14:31N 38°30' W 009°47'1 1.1
2017-Nov-17 14:00N 38°29' W 009°47'0 0.8
2017-Nov-17 13:30N 38°29' W 009°47'0 0.5
2017-Nov-17 12:53N 38°29' W 009°48'1 2.7
2017-Nov-17 12:24N 38°28' W 009°46'6 9.6
2017-Nov-17 11:45N 38°27' W 009°38'3 9.8
2017-Nov-17 11:28N 38°27' W 009°35'5 9.7
2017-Nov-17 11:00N 38°26' W 009°29'5 9.8
2017-Nov-17 10:29N 38°25' W 009°23'510.1
2017-Nov-17 09:59N 38°25' W 009°16'5 9.8
2017-Nov-17 09:30N 38°25' W 009°10'3 6.5
2017-Nov-17 09:00N 38°26' W 009°07'0 0.0
2017-Nov-17 08:30N 38°26' W 009°07'0 0.0
2017-Nov-16 09:06N 38°26' W 009°07'0 0.0
2017-Nov-16 09:01N 38°26' W 009°07'0 0.0
2017-Nov-16 07:15N 38°26' W 009°07'0 0.0
2017-Nov-16 07:00N 38°26' W 009°07'0 0.1
2017-Nov-16 06:30N 38°26' W 009°07'3 5.8
2017-Nov-16 05:59N 38°25' W 009°10'4 9.3
2017-Nov-16 05:30N 38°25' W 009°16'4 9.0
2017-Nov-16 05:00N 38°25' W 009°21'5 8.9
2017-Nov-16 04:30N 38°25' W 009°27'4 8.8
2017-Nov-16 04:00N 38°25' W 009°33'4 8.9
2017-Nov-16 03:30N 38°25' W 009°38'2 3.9
2017-Nov-16 03:00N 38°26' W 009°41'3 5.8
2017-Nov-16 02:31N 38°27' W 009°37'2 3.5
2017-Nov-16 02:00N 38°27' W 009°39'0 0.4
2017-Nov-16 01:30N 38°27' W 009°39'0 0.3
2017-Nov-16 01:00N 38°27' W 009°40'0 0.6
2017-Nov-16 00:30N 38°27' W 009°40'0 0.7
2017-Nov-16 00:00N 38°27' W 009°40'0 0.5
2017-Nov-15 23:31N 38°27' W 009°40'0 0.6
2017-Nov-15 23:00N 38°26' W 009°41'0 0.3
2017-Nov-15 22:30N 38°26' W 009°41'0 0.7
2017-Nov-15 22:00N 38°26' W 009°41'0 0.5
2017-Nov-15 21:30N 38°26' W 009°40'0 0.4
2017-Nov-15 21:00N 38°26' W 009°41'1 2.7
2017-Nov-15 20:30N 38°27' W 009°42'3 6.4
2017-Nov-15 20:00N 38°28' W 009°46'3 5.4
2017-Nov-15 19:31N 38°30' W 009°46'3 6.3
2017-Nov-15 19:00N 38°33' W 009°43'1 2.0
2017-Nov-15 18:30N 38°33' W 009°45'0 0.2
2017-Nov-15 18:00N 38°33' W 009°45'0 0.2
2017-Nov-15 17:30N 38°33' W 009°45'0 0.5
2017-Nov-15 16:59N 38°33' W 009°45'0 0.8
2017-Nov-15 16:30N 38°32' W 009°45'0 0.8
2017-Nov-15 16:00N 38°32' W 009°46'0 0.9
2017-Nov-15 15:30N 38°32' W 009°46'1 1.0
2017-Nov-15 15:00N 38°31' W 009°46'1 1.1
2017-Nov-15 14:26N 38°31' W 009°47'0 1.0
2017-Nov-15 13:58N 38°30' W 009°47'0 0.9
2017-Nov-15 13:30N 38°30' W 009°47'0 0.4
2017-Nov-15 12:52N 38°30' W 009°48'9 6.6
2017-Nov-15 11:35N 38°27' W 009°37'1 9.5
2017-Nov-15 11:30N 38°27' W 009°37'5 9.5
2017-Nov-15 11:00N 38°26' W 009°30'5 9.3
2017-Nov-15 10:29N 38°25' W 009°24'5 9.7
2017-Nov-15 10:00N 38°25' W 009°19'5 9.6
2017-Nov-15 09:30N 38°24' W 009°12'5 9.2
2017-Nov-15 09:00N 38°26' W 009°07'1 1.1
2017-Nov-15 08:30N 38°26' W 009°07'0 0.3
2017-Nov-15 08:00N 38°26' W 009°07'0 0.0
2017-Nov-14 12:11N 38°26' W 009°07'0 0.4
2017-Nov-14 12:00N 38°26' W 009°07'0 0.2
2017-Nov-14 11:30N 38°26' W 009°07'4 7.2
2017-Nov-14 10:54N 38°24' W 009°12'4 9.5
2017-Nov-14 10:30N 38°24' W 009°17'17 6.1
2017-Nov-14 07:43N 38°27' W 009°38'0 0.1
2017-Nov-14 05:02N 38°27' W 009°38'0 0.7
2017-Nov-14 05:00N 38°27' W 009°38'0 0.7
2017-Nov-14 04:29N 38°27' W 009°38'0 0.7
2017-Nov-14 04:00N 38°27' W 009°37'3 1.4
2017-Nov-14 02:02N 38°26' W 009°41'0 0.8
2017-Nov-14 02:00N 38°26' W 009°41'0 0.6
2017-Nov-14 01:29N 38°25' W 009°40'0 0.4
2017-Nov-14 00:56N 38°25' W 009°40'0 0.2
2017-Nov-14 00:27N 38°25' W 009°40'2 5.4
2017-Nov-14 00:00N 38°27' W 009°43'4 8.0
2017-Nov-13 23:30N 38°29' W 009°47'3 6.6
2017-Nov-13 23:00N 38°32' W 009°45'3 6.1
2017-Nov-13 22:30N 38°35' W 009°43'3 5.2
2017-Nov-13 22:00N 38°32' W 009°45'30 1.3
2017-Nov-12 22:27N 38°26' W 009°07'0 0.0
2017-Nov-11 08:05N 38°26' W 009°07'0 0.0
2017-Nov-11 08:00N 38°26' W 009°07'0 0.4
2017-Nov-11 07:31N 38°26' W 009°07'3 6.0
2017-Nov-11 07:01N 38°25' W 009°10'5 9.5
2017-Nov-11 06:30N 38°24' W 009°16'510.0
2017-Nov-11 06:01N 38°24' W 009°22'5 9.9
2017-Nov-11 05:31N 38°24' W 009°29'510.1
2017-Nov-11 05:00N 38°24' W 009°35'4 7.5
2017-Nov-11 04:31N 38°25' W 009°40'1 2.7
2017-Nov-11 04:00N 38°26' W 009°40'2 3.8
2017-Nov-11 03:30N 38°27' W 009°38'0 0.9
2017-Nov-11 02:59N 38°27' W 009°38'0 1.0
2017-Nov-11 02:30N 38°27' W 009°39'0 0.1
2017-Nov-11 02:01N 38°27' W 009°39'0 0.4
2017-Nov-11 01:30N 38°27' W 009°39'0 0.6
2017-Nov-11 01:01N 38°27' W 009°39'0 0.7
2017-Nov-11 00:31N 38°27' W 009°40'0 0.8
2017-Nov-11 00:00N 38°26' W 009°40'0 0.8
2017-Nov-10 23:28N 38°26' W 009°40'0 0.6
2017-Nov-10 23:00N 38°26' W 009°41'0 0.6
2017-Nov-10 22:30N 38°26' W 009°41'0 0.5
2017-Nov-10 22:00N 38°25' W 009°41'0 0.5
2017-Nov-10 21:31N 38°25' W 009°40'0 0.7
2017-Nov-10 21:01N 38°25' W 009°40'6 5.1
2017-Nov-10 19:49N 38°28' W 009°47'2 4.6
2017-Nov-10 19:29N 38°29' W 009°48'2 4.8
2017-Nov-10 19:00N 38°31' W 009°46'2 4.5
2017-Nov-10 18:30N 38°33' W 009°44'2 3.7
2017-Nov-10 18:01N 38°34' W 009°44'3 5.2
2017-Nov-10 17:30N 38°32' W 009°45'0 0.7
2017-Nov-10 17:00N 38°32' W 009°45'0 0.2
2017-Nov-10 16:30N 38°32' W 009°45'0 0.6
2017-Nov-10 16:00N 38°31' W 009°45'0 0.8
2017-Nov-10 15:31N 38°31' W 009°45'0 0.4
2017-Nov-10 15:00N 38°31' W 009°46'0 0.8
2017-Nov-10 14:30N 38°31' W 009°46'0 0.8
2017-Nov-10 14:00N 38°30' W 009°46'0 1.0
2017-Nov-10 13:30N 38°30' W 009°46'1 1.1
2017-Nov-10 13:00N 38°29' W 009°46'1 1.0
2017-Nov-10 12:30N 38°29' W 009°47'1 1.0
2017-Nov-10 12:01N 38°28' W 009°47'0 0.8
2017-Nov-10 11:30N 38°28' W 009°47'1 1.1
2017-Nov-10 11:01N 38°28' W 009°47'3 5.8
2017-Nov-10 10:30N 38°28' W 009°43'4 8.6
2017-Nov-10 10:01N 38°27' W 009°37'5 9.1
2017-Nov-10 09:30N 38°27' W 009°32'4 8.7
2017-Nov-10 09:00N 38°26' W 009°26'4 8.6
2017-Nov-10 08:30N 38°25' W 009°21'4 8.8
2017-Nov-10 08:00N 38°24' W 009°15'5 9.1
2017-Nov-10 07:25N 38°25' W 009°08'2 4.3
2017-Nov-10 07:01N 38°26' W 009°07'  
Track history (hours):
 
Tides and Currents Weather Stations Pressure Air Temp Water Temp Dewpoint Dewpoint Depression Visibility Wind Speed Wind Dir Waves Ship Positions

Desterrado

Last reported at 2017-Nov-19 20:14 UTC. Time now 2017-Nov-21 04:46 UTC.
Position N 38°26' W 009°07'.

Length 18 m.

Type: Fishing. MMSI: 263341000.

Date/timePositionNaut miles runAvg speedWind from/ knotsBaromVisibWave heightAir tempDewpointWater temp
2017-Nov-19 20:14N 38°26' W 009°07'0 0.0
2017-Nov-19 13:49N 38°26' W 009°07'0 0.0
2017-Nov-19 13:30N 38°26' W 009°07'0 0.0
2017-Nov-19 13:00N 38°26' W 009°07'0 0.0
2017-Nov-19 12:30N 38°26' W 009°07'0 0.0
2017-Nov-19 12:00N 38°26' W 009°07'0 0.0
2017-Nov-19 11:30N 38°26' W 009°07'0 0.0
2017-Nov-19 11:00N 38°26' W 009°07'0 0.0
2017-Nov-18 06:43N 38°26' W 009°07'0 0.0
2017-Nov-18 06:30N 38°26' W 009°07'0 0.2
2017-Nov-18 06:00N 38°26' W 009°07'2 4.7
2017-Nov-18 05:30N 38°25' W 009°09'4 8.2
2017-Nov-18 05:00N 38°25' W 009°15'4 8.6
2017-Nov-18 04:30N 38°25' W 009°20'4 8.9
2017-Nov-18 04:00N 38°25' W 009°26'4 9.0
2017-Nov-18 03:30N 38°25' W 009°31'6 5.0
2017-Nov-18 02:17N 38°26' W 009°39'2 5.4
2017-Nov-18 02:00N 38°27' W 009°37'2 3.4
2017-Nov-18 01:30N 38°26' W 009°39'0 0.4
2017-Nov-18 01:00N 38°26' W 009°39'0 0.3
2017-Nov-18 00:30N 38°26' W 009°39'0 0.8
2017-Nov-17 23:59N 38°26' W 009°40'0 0.8
2017-Nov-17 23:30N 38°26' W 009°40'0 0.5
2017-Nov-17 23:00N 38°26' W 009°41'0 0.8
2017-Nov-17 22:30N 38°26' W 009°41'0 0.5
2017-Nov-17 22:00N 38°25' W 009°41'0 0.4
2017-Nov-17 21:30N 38°25' W 009°41'0 0.2
2017-Nov-17 21:00N 38°25' W 009°41'0 0.5
2017-Nov-17 20:28N 38°25' W 009°41'7 5.9
2017-Nov-17 19:19N 38°32' W 009°45'2 6.1
2017-Nov-17 19:00N 38°33' W 009°44'1 2.2
2017-Nov-17 18:30N 38°32' W 009°44'0 0.2
2017-Nov-17 18:00N 38°32' W 009°44'0 0.6
2017-Nov-17 17:30N 38°32' W 009°44'0 0.9
2017-Nov-17 17:00N 38°32' W 009°45'0 0.7
2017-Nov-17 16:31N 38°31' W 009°45'0 0.9
2017-Nov-17 16:00N 38°31' W 009°45'1 1.1
2017-Nov-17 15:30N 38°31' W 009°46'1 1.2
2017-Nov-17 15:00N 38°30' W 009°46'0 1.0
2017-Nov-17 14:31N 38°30' W 009°47'1 1.1
2017-Nov-17 14:00N 38°29' W 009°47'0 0.8
2017-Nov-17 13:30N 38°29' W 009°47'0 0.5
2017-Nov-17 12:53N 38°29' W 009°48'1 2.7
2017-Nov-17 12:24N 38°28' W 009°46'6 9.6
2017-Nov-17 11:45N 38°27' W 009°38'3 9.8
2017-Nov-17 11:28N 38°27' W 009°35'5 9.7
2017-Nov-17 11:00N 38°26' W 009°29'5 9.8
2017-Nov-17 10:29N 38°25' W 009°23'510.1
2017-Nov-17 09:59N 38°25' W 009°16'5 9.8
2017-Nov-17 09:30N 38°25' W 009°10'3 6.5
2017-Nov-17 09:00N 38°26' W 009°07'0 0.0
2017-Nov-17 08:30N 38°26' W 009°07'0 0.0
2017-Nov-16 09:06N 38°26' W 009°07'0 0.0
2017-Nov-16 09:01N 38°26' W 009°07'0 0.0
2017-Nov-16 07:15N 38°26' W 009°07'0 0.0
2017-Nov-16 07:00N 38°26' W 009°07'0 0.1
2017-Nov-16 06:30N 38°26' W 009°07'3 5.8
2017-Nov-16 05:59N 38°25' W 009°10'4 9.3
2017-Nov-16 05:30N 38°25' W 009°16'4 9.0
2017-Nov-16 05:00N 38°25' W 009°21'5 8.9
2017-Nov-16 04:30N 38°25' W 009°27'4 8.8
2017-Nov-16 04:00N 38°25' W 009°33'4 8.9
2017-Nov-16 03:30N 38°25' W 009°38'2 3.9
2017-Nov-16 03:00N 38°26' W 009°41'3 5.8
2017-Nov-16 02:31N 38°27' W 009°37'2 3.5
2017-Nov-16 02:00N 38°27' W 009°39'0 0.4
2017-Nov-16 01:30N 38°27' W 009°39'0 0.3
2017-Nov-16 01:00N 38°27' W 009°40'0 0.6
2017-Nov-16 00:30N 38°27' W 009°40'0 0.7
2017-Nov-16 00:00N 38°27' W 009°40'0 0.5
2017-Nov-15 23:31N 38°27' W 009°40'0 0.6
2017-Nov-15 23:00N 38°26' W 009°41'0 0.3
2017-Nov-15 22:30N 38°26' W 009°41'0 0.7
2017-Nov-15 22:00N 38°26' W 009°41'0 0.5
2017-Nov-15 21:30N 38°26' W 009°40'0 0.4
2017-Nov-15 21:00N 38°26' W 009°41'1 2.7
2017-Nov-15 20:30N 38°27' W 009°42'3 6.4
2017-Nov-15 20:00N 38°28' W 009°46'3 5.4
2017-Nov-15 19:31N 38°30' W 009°46'3 6.3
2017-Nov-15 19:00N 38°33' W 009°43'1 2.0
2017-Nov-15 18:30N 38°33' W 009°45'0 0.2
2017-Nov-15 18:00N 38°33' W 009°45'0 0.2
2017-Nov-15 17:30N 38°33' W 009°45'0 0.5
2017-Nov-15 16:59N 38°33' W 009°45'0 0.8
2017-Nov-15 16:30N 38°32' W 009°45'0 0.8
2017-Nov-15 16:00N 38°32' W 009°46'0 0.9
2017-Nov-15 15:30N 38°32' W 009°46'1 1.0
2017-Nov-15 15:00N 38°31' W 009°46'1 1.1
2017-Nov-15 14:26N 38°31' W 009°47'0 1.0
2017-Nov-15 13:58N 38°30' W 009°47'0 0.9
2017-Nov-15 13:30N 38°30' W 009°47'0 0.4
2017-Nov-15 12:52N 38°30' W 009°48'9 6.6
2017-Nov-15 11:35N 38°27' W 009°37'1 9.5
2017-Nov-15 11:30N 38°27' W 009°37'5 9.5
2017-Nov-15 11:00N 38°26' W 009°30'5 9.3
2017-Nov-15 10:29N 38°25' W 009°24'5 9.7
2017-Nov-15 10:00N 38°25' W 009°19'5 9.6
2017-Nov-15 09:30N 38°24' W 009°12'5 9.2
2017-Nov-15 09:00N 38°26' W 009°07'1 1.1
2017-Nov-15 08:30N 38°26' W 009°07'0 0.3
2017-Nov-15 08:00N 38°26' W 009°07'0 0.0
2017-Nov-14 12:11N 38°26' W 009°07'0 0.4
2017-Nov-14 12:00N 38°26' W 009°07'0 0.2
2017-Nov-14 11:30N 38°26' W 009°07'4 7.2
2017-Nov-14 10:54N 38°24' W 009°12'4 9.5
2017-Nov-14 10:30N 38°24' W 009°17'17 6.1
2017-Nov-14 07:43N 38°27' W 009°38'0 0.1
2017-Nov-14 05:02N 38°27' W 009°38'0 0.7
2017-Nov-14 05:00N 38°27' W 009°38'0 0.7
2017-Nov-14 04:29N 38°27' W 009°38'0 0.7
2017-Nov-14 04:00N 38°27' W 009°37'3 1.4
2017-Nov-14 02:02N 38°26' W 009°41'0 0.8
2017-Nov-14 02:00N 38°26' W 009°41'0 0.6
2017-Nov-14 01:29N 38°25' W 009°40'0 0.4
2017-Nov-14 00:56N 38°25' W 009°40'0 0.2
2017-Nov-14 00:27N 38°25' W 009°40'2 5.4
2017-Nov-14 00:00N 38°27' W 009°43'4 8.0
2017-Nov-13 23:30N 38°29' W 009°47'3 6.6
2017-Nov-13 23:00N 38°32' W 009°45'3 6.1
2017-Nov-13 22:30N 38°35' W 009°43'3 5.2
2017-Nov-13 22:00N 38°32' W 009°45'30 1.3
2017-Nov-12 22:27N 38°26' W 009°07'0 0.0
2017-Nov-11 08:05N 38°26' W 009°07'0 0.0
2017-Nov-11 08:00N 38°26' W 009°07'0 0.4
2017-Nov-11 07:31N 38°26' W 009°07'3 6.0
2017-Nov-11 07:01N 38°25' W 009°10'5 9.5
2017-Nov-11 06:30N 38°24' W 009°16'510.0
2017-Nov-11 06:01N 38°24' W 009°22'5 9.9
2017-Nov-11 05:31N 38°24' W 009°29'510.1
2017-Nov-11 05:00N 38°24' W 009°35'4 7.5
2017-Nov-11 04:31N 38°25' W 009°40'1 2.7
2017-Nov-11 04:00N 38°26' W 009°40'2 3.8
2017-Nov-11 03:30N 38°27' W 009°38'0 0.9
2017-Nov-11 02:59N 38°27' W 009°38'0 1.0
2017-Nov-11 02:30N 38°27' W 009°39'0 0.1
2017-Nov-11 02:01N 38°27' W 009°39'0 0.4
2017-Nov-11 01:30N 38°27' W 009°39'0 0.6
2017-Nov-11 01:01N 38°27' W 009°39'0 0.7
2017-Nov-11 00:31N 38°27' W 009°40'0 0.8
2017-Nov-11 00:00N 38°26' W 009°40'0 0.8
2017-Nov-10 23:28N 38°26' W 009°40'0 0.6
2017-Nov-10 23:00N 38°26' W 009°41'0 0.6
2017-Nov-10 22:30N 38°26' W 009°41'0 0.5
2017-Nov-10 22:00N 38°25' W 009°41'0 0.5
2017-Nov-10 21:31N 38°25' W 009°40'0 0.7
2017-Nov-10 21:01N 38°25' W 009°40'6 5.1
2017-Nov-10 19:49N 38°28' W 009°47'2 4.6
2017-Nov-10 19:29N 38°29' W 009°48'2 4.8
2017-Nov-10 19:00N 38°31' W 009°46'2 4.5
2017-Nov-10 18:30N 38°33' W 009°44'2 3.7
2017-Nov-10 18:01N 38°34' W 009°44'3 5.2
2017-Nov-10 17:30N 38°32' W 009°45'0 0.7
2017-Nov-10 17:00N 38°32' W 009°45'0 0.2
2017-Nov-10 16:30N 38°32' W 009°45'0 0.6
2017-Nov-10 16:00N 38°31' W 009°45'0 0.8
2017-Nov-10 15:31N 38°31' W 009°45'0 0.4
2017-Nov-10 15:00N 38°31' W 009°46'0 0.8
2017-Nov-10 14:30N 38°31' W 009°46'0 0.8
2017-Nov-10 14:00N 38°30' W 009°46'0 1.0
2017-Nov-10 13:30N 38°30' W 009°46'1 1.1
2017-Nov-10 13:00N 38°29' W 009°46'1 1.0
2017-Nov-10 12:30N 38°29' W 009°47'1 1.0
2017-Nov-10 12:01N 38°28' W 009°47'0 0.8
2017-Nov-10 11:30N 38°28' W 009°47'1 1.1
2017-Nov-10 11:01N 38°28' W 009°47'3 5.8
2017-Nov-10 10:30N 38°28' W 009°43'4 8.6
2017-Nov-10 10:01N 38°27' W 009°37'5 9.1
2017-Nov-10 09:30N 38°27' W 009°32'4 8.7
2017-Nov-10 09:00N 38°26' W 009°26'4 8.6
2017-Nov-10 08:30N 38°25' W 009°21'4 8.8
2017-Nov-10 08:00N 38°24' W 009°15'5 9.1
2017-Nov-10 07:25N 38°25' W 009°08'2 4.3
2017-Nov-10 07:01N 38°26' W 009°07'  

Dump ship's entire track history